createdAt,value
2022-08-12T00:01:01.557Z,96.90
2022-08-12T00:03:41.589Z,96.90
2022-08-12T00:06:22.772Z,96.90
2022-08-12T00:09:03.954Z,96.80
2022-08-12T00:11:44.954Z,96.80
2022-08-12T00:14:25.265Z,96.70
2022-08-12T00:17:06.315Z,96.60
2022-08-12T00:19:46.290Z,96.40
2022-08-12T00:22:27.440Z,96.50
2022-08-12T00:25:15.214Z,96.50
2022-08-12T00:27:55.514Z,96.40
2022-08-12T00:30:36.387Z,96.50
2022-08-12T00:33:16.473Z,96.40
2022-08-12T00:35:57.368Z,96.20
2022-08-12T00:38:38.321Z,96.40
2022-08-12T00:41:21.316Z,96.30
2022-08-12T00:43:49.801Z,96.30
2022-08-12T00:46:36.809Z,96.20
2022-08-12T00:49:04.866Z,96.00
2022-08-12T00:51:45.637Z,96.00
2022-08-12T00:54:13.477Z,96.00
2022-08-12T00:56:42.307Z,95.90
2022-08-12T00:59:10.193Z,95.80
2022-08-12T01:02:00.988Z,95.60
2022-08-12T01:04:40.724Z,95.70
2022-08-12T01:07:21.961Z,95.80
2022-08-12T01:10:03.809Z,95.70
2022-08-12T01:12:32.720Z,95.50
2022-08-12T01:15:01.378Z,95.60
2022-08-12T01:17:30.380Z,95.20
2022-08-12T01:20:00.876Z,95.00
2022-08-12T01:22:38.581Z,94.90
2022-08-12T01:25:12.790Z,94.80
2022-08-12T01:27:41.483Z,95.00
2022-08-12T01:30:13.506Z,95.00
2022-08-12T01:32:43.493Z,94.30
2022-08-12T01:35:15.750Z,95.00
2022-08-12T01:38:03.902Z,94.90
2022-08-12T01:40:37.408Z,94.60
2022-08-12T01:43:10.074Z,94.80
2022-08-12T01:45:43.614Z,94.70
2022-08-12T01:48:23.864Z,94.40
2022-08-12T01:51:07.704Z,94.60
2022-08-12T01:53:50.695Z,94.40
2022-08-12T01:56:26.078Z,94.40
2022-08-12T01:59:12.509Z,94.00
2022-08-12T02:01:41.218Z,94.30
2022-08-12T02:04:40.768Z,94.10
2022-08-12T02:10:50.401Z,93.50
2022-08-12T02:13:33.296Z,94.20
2022-08-12T02:16:30.829Z,93.90
2022-08-12T02:19:22.482Z,93.70
2022-08-12T02:22:10.661Z,93.80
2022-08-12T02:24:39.733Z,93.60
2022-08-12T02:27:10.268Z,93.70
2022-08-12T02:29:38.425Z,93.80
2022-08-12T02:32:09.273Z,93.80
2022-08-12T02:34:38.402Z,93.30
2022-08-12T02:37:11.560Z,93.70
2022-08-12T02:39:41.988Z,93.70
2022-08-12T02:42:11.404Z,93.40
2022-08-12T02:44:45.784Z,92.50
2022-08-12T02:48:00.356Z,92.50
2022-08-12T02:50:04.581Z,93.10
2022-08-12T02:52:34.090Z,93.20
2022-08-12T02:55:28.797Z,93.10
2022-08-12T02:58:06.982Z,92.50
2022-08-12T03:00:40.498Z,92.80
2022-08-12T03:03:13.514Z,92.00
2022-08-12T03:05:54.405Z,92.80
2022-08-12T03:08:31.774Z,92.00
2022-08-12T03:11:21.714Z,92.60
2022-08-12T03:13:58.601Z,92.70
2022-08-12T03:16:28.703Z,92.50
2022-08-12T03:18:57.540Z,92.70
2022-08-12T03:21:52.870Z,92.50
2022-08-12T03:24:29.086Z,92.30
2022-08-12T03:27:00.220Z,92.20
2022-08-12T03:29:43.350Z,92.30
2022-08-12T03:32:35.547Z,92.20
2022-08-12T03:35:40.432Z,92.20
2022-08-12T03:38:00.894Z,91.30
2022-08-12T03:40:46.537Z,91.80
2022-08-12T03:43:29.805Z,91.90
2022-08-12T03:46:12.261Z,91.50
2022-08-12T03:48:53.583Z,91.40
2022-08-12T03:51:33.811Z,91.60
2022-08-12T03:54:14.499Z,91.60
2022-08-12T03:59:48.822Z,90.60
2022-08-12T04:02:16.793Z,91.40
2022-08-12T04:04:49.304Z,91.30
2022-08-12T04:07:18.022Z,91.30
2022-08-12T04:09:47.152Z,91.30
2022-08-12T04:12:36.467Z,91.40
2022-08-12T04:15:09.368Z,91.40
2022-08-12T04:18:07.578Z,91.30
2022-08-12T04:20:28.915Z,91.40
2022-08-12T04:22:57.261Z,91.40
2022-08-12T04:25:28.715Z,91.50
2022-08-12T04:27:56.526Z,91.40
2022-08-12T04:30:50.480Z,91.30
2022-08-12T04:33:22.064Z,91.30
2022-08-12T04:35:50.744Z,91.30
2022-08-12T04:38:20.443Z,90.60
2022-08-12T04:40:48.206Z,91.20
2022-08-12T04:43:59.646Z,91.10
2022-08-12T04:46:04.441Z,91.30
2022-08-12T04:48:33.192Z,91.30
2022-08-12T04:51:01.176Z,91.30
2022-08-12T04:53:29.181Z,91.30
2022-08-12T04:55:57.409Z,91.40
2022-08-12T04:58:29.647Z,91.40
2022-08-12T05:00:59.128Z,91.80
2022-08-12T05:03:46.842Z,91.50
2022-08-12T05:06:26.917Z,91.20
2022-08-12T05:09:01.369Z,91.30
2022-08-12T05:11:30.464Z,91.50
2022-08-12T05:14:02.701Z,91.50
2022-08-12T05:16:34.080Z,91.50
2022-08-12T05:19:05.398Z,91.50
2022-08-12T05:21:41.440Z,91.20
2022-08-12T05:24:14.201Z,91.50
2022-08-12T05:26:51.341Z,91.10
2022-08-12T05:30:07.972Z,91.40
2022-08-12T05:32:20.977Z,91.30
2022-08-12T05:34:49.090Z,91.40
2022-08-12T05:37:18.057Z,91.40
2022-08-12T05:39:51.539Z,91.40
2022-08-12T05:42:32.552Z,91.40
2022-08-12T05:45:02.224Z,91.20
2022-08-12T05:47:52.914Z,91.30
2022-08-12T05:50:21.824Z,91.50
2022-08-12T05:52:49.621Z,91.40
2022-08-12T05:55:24.192Z,91.70
2022-08-12T05:57:56.486Z,91.70
2022-08-12T06:00:26.254Z,91.60
2022-08-12T06:03:01.723Z,91.70
2022-08-12T06:05:32.420Z,91.70
2022-08-12T06:08:06.571Z,91.70
2022-08-12T06:10:41.404Z,91.80
2022-08-12T06:13:11.893Z,91.90
2022-08-12T06:15:43.647Z,91.90
2022-08-12T06:18:14.210Z,92.00
2022-08-12T06:20:47.079Z,91.50
2022-08-12T06:23:16.007Z,92.00
2022-08-12T06:25:51.049Z,91.90
2022-08-12T06:28:20.134Z,91.90
2022-08-12T06:31:08.185Z,91.90
2022-08-12T06:33:55.294Z,91.90
2022-08-12T06:36:30.103Z,91.40
2022-08-12T06:39:02.084Z,91.60
2022-08-12T06:42:04.941Z,91.70
2022-08-12T06:44:33.099Z,91.70
2022-08-12T06:47:01.061Z,91.60
2022-08-12T06:49:35.317Z,90.60
2022-08-12T06:52:04.994Z,91.30
2022-08-12T06:54:33.678Z,91.30
2022-08-12T06:58:06.853Z,91.30
2022-08-12T06:59:59.876Z,91.20
2022-08-12T07:02:27.960Z,91.20
2022-08-12T07:04:55.970Z,91.10
2022-08-12T07:07:26.784Z,91.20
2022-08-12T07:10:04.759Z,91.10
2022-08-12T07:12:34.987Z,91.10
2022-08-12T07:15:03.111Z,90.50
2022-08-12T07:17:36.552Z,90.80
2022-08-12T07:20:10.232Z,90.90
2022-08-12T07:22:54.060Z,90.80
2022-08-12T07:25:41.552Z,90.80
2022-08-12T07:28:29.818Z,90.90
2022-08-12T07:30:59.346Z,91.00
2022-08-12T07:33:46.841Z,91.00
2022-08-12T07:36:15.095Z,90.90
2022-08-12T07:38:49.993Z,91.00
2022-08-12T07:41:26.236Z,91.00
2022-08-12T07:44:02.491Z,91.10
2022-08-12T07:46:37.418Z,91.00
2022-08-12T07:49:07.555Z,91.10
2022-08-12T07:51:36.366Z,91.00
2022-08-12T07:54:10.617Z,91.10
2022-08-12T07:56:39.969Z,91.20
2022-08-12T07:59:09.198Z,91.10
2022-08-12T08:01:40.626Z,90.90
2022-08-12T08:04:20.838Z,91.20
2022-08-12T08:06:49.468Z,91.20
2022-08-12T08:09:21.681Z,91.00
2022-08-12T08:12:03.072Z,91.10
2022-08-12T08:14:32.262Z,91.30
2022-08-12T08:17:01.731Z,91.20
2022-08-12T08:20:03.181Z,91.20
2022-08-12T08:22:41.058Z,91.30
2022-08-12T08:25:35.206Z,91.40
2022-08-12T08:28:05.752Z,91.40
2022-08-12T08:30:33.698Z,91.30
2022-08-12T08:33:02.324Z,91.10
2022-08-12T08:35:46.796Z,91.30
2022-08-12T08:38:27.358Z,91.30
2022-08-12T08:41:13.152Z,91.30
2022-08-12T08:44:06.246Z,91.60
2022-08-12T08:46:38.709Z,91.20
2022-08-12T08:49:07.032Z,91.20
2022-08-12T08:51:38.352Z,91.10
2022-08-12T08:54:09.989Z,91.10
2022-08-12T08:56:50.426Z,90.90
2022-08-12T08:59:22.945Z,91.00
2022-08-12T09:01:50.890Z,91.10
2022-08-12T09:05:11.866Z,90.90
2022-08-12T09:07:17.660Z,91.10
2022-08-12T09:13:00.872Z,91.30
2022-08-12T09:15:35.728Z,91.20
2022-08-12T09:18:08.837Z,91.20
2022-08-12T09:20:40.561Z,91.30
2022-08-12T09:24:00.076Z,91.40
2022-08-12T09:26:03.896Z,91.60
2022-08-12T09:28:37.278Z,91.50
2022-08-12T09:32:04.212Z,91.50
2022-08-12T09:34:26.142Z,91.80
2022-08-12T09:36:57.817Z,91.60
2022-08-12T09:40:06.364Z,91.50
2022-08-12T09:42:57.704Z,91.60
2022-08-12T09:46:06.359Z,91.60
2022-08-12T09:48:20.486Z,91.60
2022-08-12T09:50:52.181Z,91.50
2022-08-12T09:53:36.229Z,91.40
2022-08-12T09:56:59.994Z,91.40
2022-08-12T09:59:00.062Z,91.40
2022-08-12T10:01:34.483Z,91.50
2022-08-12T10:04:06.286Z,91.40
2022-08-12T10:06:36.653Z,91.50
2022-08-12T10:09:23.151Z,91.50
2022-08-12T10:12:11.840Z,91.50
2022-08-12T10:14:50.554Z,91.50
2022-08-12T10:17:25.281Z,91.40
2022-08-12T10:19:53.924Z,91.40
2022-08-12T10:22:39.540Z,91.60
2022-08-12T10:25:21.841Z,91.60
2022-08-12T10:28:03.687Z,91.70
2022-08-12T10:30:39.804Z,91.70
2022-08-12T10:33:19.310Z,91.80
2022-08-12T10:35:59.865Z,91.80
2022-08-12T10:38:38.714Z,91.90
2022-08-12T10:41:22.291Z,91.90
2022-08-12T10:43:55.116Z,91.90
2022-08-12T10:46:30.973Z,91.90
2022-08-12T10:49:05.956Z,91.90
2022-08-12T10:52:04.110Z,91.90
2022-08-12T10:54:37.418Z,91.90
2022-08-12T10:57:05.431Z,92.00
2022-08-12T11:00:31.019Z,92.00
2022-08-12T11:04:31.478Z,92.00
2022-08-12T11:07:07.641Z,92.00
2022-08-12T11:08:34.826Z,92.00
2022-08-12T11:10:51.058Z,92.00
2022-08-12T11:13:20.627Z,92.10
2022-08-12T11:16:21.786Z,92.10
2022-08-12T11:18:55.070Z,92.10
2022-08-12T11:21:51.089Z,92.10
2022-08-12T11:24:30.009Z,92.20
2022-08-12T11:26:59.698Z,92.30
2022-08-12T11:30:06.208Z,92.40
2022-08-12T11:32:18.376Z,92.50
2022-08-12T11:34:52.451Z,92.50
2022-08-12T11:37:24.891Z,92.50
2022-08-12T11:42:39.866Z,93.20
2022-08-12T11:45:17.188Z,92.80
2022-08-12T11:47:45.098Z,92.90
2022-08-12T11:50:19.563Z,92.90
2022-08-12T11:52:55.772Z,92.90
2022-08-12T11:55:29.605Z,93.00
2022-08-12T11:58:17.241Z,93.00
2022-08-12T12:03:43.927Z,93.20
2022-08-12T12:06:17.990Z,93.30
2022-08-12T12:08:51.321Z,93.40
2022-08-12T12:11:21.198Z,93.50
2022-08-12T12:14:06.404Z,93.60
2022-08-12T12:16:39.672Z,93.60
2022-08-12T12:19:10.443Z,93.70
2022-08-12T12:21:47.337Z,93.80
2022-08-12T12:24:21.045Z,93.80
2022-08-12T12:27:00.781Z,93.90
2022-08-12T12:30:17.929Z,94.00
2022-08-12T12:32:28.986Z,94.10
2022-08-12T12:35:17.777Z,94.20
2022-08-12T12:38:04.077Z,94.30
2022-08-12T12:40:43.901Z,94.30
2022-08-12T12:43:12.755Z,94.30
2022-08-12T12:45:44.089Z,94.50
2022-08-12T12:48:14.604Z,94.50
2022-08-12T12:50:51.259Z,94.60
2022-08-12T12:54:08.474Z,94.60
2022-08-12T12:56:34.191Z,95.00
2022-08-12T12:59:04.701Z,94.70
2022-08-12T13:01:38.326Z,94.80
2022-08-12T13:04:13.701Z,94.70
2022-08-12T13:06:43.398Z,94.80
2022-08-12T13:09:13.578Z,94.80
2022-08-12T13:11:44.610Z,95.00
2022-08-12T13:14:27.969Z,95.00
2022-08-12T13:16:58.529Z,95.00
2022-08-12T13:19:37.437Z,95.00
2022-08-12T13:22:21.302Z,95.00
2022-08-12T13:24:55.582Z,95.00
2022-08-12T13:27:35.778Z,95.00
2022-08-12T13:30:11.275Z,95.10
2022-08-12T13:32:57.425Z,95.10
2022-08-12T13:36:02.693Z,95.50
2022-08-12T13:38:14.747Z,95.20
2022-08-12T13:40:59.590Z,95.20
2022-08-12T13:43:41.165Z,95.30
2022-08-12T13:46:12.175Z,95.30
2022-08-12T13:48:44.651Z,95.40
2022-08-12T13:51:13.571Z,95.30
2022-08-12T13:53:57.777Z,95.50
2022-08-12T13:56:34.793Z,95.40
2022-08-12T13:59:09.809Z,95.50
2022-08-12T14:01:41.936Z,95.60
2022-08-12T14:04:11.829Z,95.50
2022-08-12T14:06:43.462Z,95.30
2022-08-12T14:09:15.441Z,94.90
2022-08-12T14:11:51.187Z,95.30
2022-08-12T14:14:31.032Z,95.40
2022-08-12T14:17:05.548Z,95.50
2022-08-12T14:19:48.598Z,95.50
2022-08-12T14:22:25.924Z,95.70
2022-08-12T14:24:55.609Z,96.00
2022-08-12T14:28:06.019Z,95.90
2022-08-12T14:30:29.051Z,95.90
2022-08-12T14:32:58.109Z,95.70
2022-08-12T14:35:25.962Z,95.60
2022-08-12T14:37:56.045Z,96.10
2022-08-12T14:40:28.595Z,95.80
2022-08-12T14:42:58.178Z,96.00
2022-08-12T14:45:45.149Z,96.00
2022-08-12T14:48:15.205Z,96.00
2022-08-12T14:51:09.568Z,95.80
2022-08-12T14:59:24.167Z,96.00
2022-08-12T15:01:54.530Z,96.10
2022-08-12T15:04:29.820Z,96.10
2022-08-12T15:06:58.527Z,95.70
2022-08-12T15:09:32.357Z,95.50
2022-08-12T15:12:03.933Z,95.60
2022-08-12T15:14:32.512Z,95.70
2022-08-12T15:17:03.242Z,96.20
2022-08-12T15:20:27.776Z,96.50
2022-08-12T15:22:39.554Z,96.70
2022-08-12T15:25:07.950Z,96.70
2022-08-12T15:28:05.247Z,96.10
2022-08-12T15:30:32.103Z,96.20
2022-08-12T15:33:00.055Z,95.90
2022-08-12T15:35:50.438Z,96.10
2022-08-12T15:38:20.840Z,96.50
2022-08-12T15:40:50.061Z,96.50
2022-08-12T15:43:35.663Z,96.80
2022-08-12T15:46:07.931Z,96.80
2022-08-12T15:48:46.443Z,96.80
2022-08-12T15:51:27.402Z,97.00
2022-08-12T15:54:34.486Z,97.00
2022-08-12T15:57:06.032Z,97.10
2022-08-12T16:00:00.368Z,97.00
2022-08-12T16:02:29.824Z,97.10
2022-08-12T16:04:59.015Z,97.00
2022-08-12T16:07:29.952Z,97.20
2022-08-12T16:10:05.568Z,97.30
2022-08-12T16:12:43.370Z,97.30
2022-08-12T16:15:24.982Z,97.30
2022-08-12T16:18:10.394Z,97.60
2022-08-12T16:20:46.461Z,97.50
2022-08-12T16:23:36.335Z,97.30
2022-08-12T16:26:14.188Z,97.10
2022-08-12T16:28:42.784Z,96.90
2022-08-12T16:31:14.356Z,97.20
2022-08-12T16:33:59.090Z,97.20
2022-08-12T16:36:30.303Z,97.50
2022-08-12T16:39:01.227Z,97.50
2022-08-12T16:41:39.500Z,97.40
2022-08-12T16:44:08.678Z,97.50
2022-08-12T16:46:37.692Z,97.70
2022-08-12T16:49:09.085Z,97.90
2022-08-12T16:51:46.937Z,97.70
2022-08-12T16:54:18.747Z,97.70
2022-08-12T16:56:55.371Z,97.80
2022-08-12T16:59:30.774Z,97.70
2022-08-12T17:02:00.602Z,97.60
2022-08-12T17:04:29.418Z,97.60
2022-08-12T17:06:57.178Z,97.30
2022-08-12T17:09:25.884Z,97.40
2022-08-12T17:12:02.070Z,97.30
2022-08-12T17:14:36.930Z,97.10
2022-08-12T17:17:26.182Z,97.60
2022-08-12T17:20:33.957Z,97.20
2022-08-12T17:22:57.789Z,97.20
2022-08-12T17:25:26.013Z,97.50
2022-08-12T17:27:59.457Z,97.60
2022-08-12T17:30:30.233Z,97.30
2022-08-12T17:33:06.764Z,97.30
2022-08-12T17:35:37.429Z,97.30
2022-08-12T17:38:14.154Z,97.60
2022-08-12T17:40:43.161Z,97.70
2022-08-12T17:43:57.703Z,97.60
2022-08-12T17:46:03.813Z,97.50
2022-08-12T17:48:38.762Z,97.80
2022-08-12T17:51:15.750Z,97.80
2022-08-12T17:54:10.363Z,98.00
2022-08-12T17:56:38.161Z,98.10
2022-08-12T17:59:07.466Z,97.90
2022-08-12T18:01:36.551Z,97.90
2022-08-12T18:04:21.220Z,97.80
2022-08-12T18:06:55.809Z,98.30
2022-08-12T18:09:36.188Z,98.40
2022-08-12T18:12:24.617Z,98.70
2022-08-12T18:15:08.540Z,98.40
2022-08-12T18:17:39.240Z,98.40
2022-08-12T18:20:15.379Z,98.40
2022-08-12T18:22:45.127Z,98.70
2022-08-12T18:26:13.106Z,98.60
2022-08-12T18:28:29.224Z,98.60
2022-08-12T18:31:02.280Z,98.20
2022-08-12T18:33:43.773Z,98.30
2022-08-12T18:36:22.545Z,98.50
2022-08-12T18:38:59.517Z,98.90
2022-08-12T18:41:34.383Z,98.60
2022-08-12T18:44:08.115Z,98.80
2022-08-12T18:46:58.685Z,98.80
2022-08-12T18:49:31.859Z,98.80
2022-08-12T18:52:04.380Z,98.70
2022-08-12T18:54:35.680Z,98.10
2022-08-12T18:57:19.848Z,97.90
2022-08-12T19:00:00.298Z,97.80
2022-08-12T19:02:33.916Z,97.70
2022-08-12T19:05:11.973Z,97.90
2022-08-12T19:07:49.991Z,98.20
2022-08-12T19:10:29.783Z,98.00
2022-08-12T19:13:10.598Z,98.10
2022-08-12T19:15:43.283Z,98.10
2022-08-12T19:18:11.707Z,97.90
2022-08-12T19:20:40.777Z,98.20
2022-08-12T19:23:16.580Z,98.30
2022-08-12T19:25:59.653Z,98.30
2022-08-12T19:28:36.360Z,98.10
2022-08-12T19:31:56.501Z,98.10
2022-08-12T19:34:46.768Z,98.20
2022-08-12T19:37:09.022Z,98.10
2022-08-12T19:40:10.035Z,98.00
2022-08-12T19:42:28.310Z,97.90
2022-08-12T19:45:00.002Z,97.80
2022-08-12T19:47:28.064Z,98.00
2022-08-12T19:50:11.191Z,98.20
2022-08-12T19:52:39.735Z,97.90
2022-08-12T19:55:11.620Z,97.80
2022-08-12T19:58:03.100Z,97.70
2022-08-12T20:00:34.610Z,97.70
2022-08-12T20:03:04.834Z,97.90
2022-08-12T20:06:06.099Z,97.70
2022-08-12T20:08:31.466Z,97.90
2022-08-12T20:12:15.111Z,97.70
2022-08-12T20:14:00.430Z,97.80
2022-08-12T20:16:53.271Z,97.70
2022-08-12T20:19:18.036Z,97.80
2022-08-12T20:21:45.918Z,97.80
2022-08-12T20:24:14.633Z,97.70
2022-08-12T20:26:43.100Z,97.70
2022-08-12T20:29:12.984Z,97.80
2022-08-12T20:31:42.230Z,98.00
2022-08-12T20:34:12.354Z,97.90
2022-08-12T20:36:45.145Z,97.90
2022-08-12T20:39:34.104Z,97.90
2022-08-12T20:42:07.320Z,97.90
2022-08-12T20:44:40.022Z,97.80
2022-08-12T20:47:19.867Z,97.90
2022-08-12T20:49:55.750Z,98.00
2022-08-12T20:52:29.909Z,97.90
2022-08-12T20:54:59.178Z,98.00
2022-08-12T20:57:37.944Z,98.00
2022-08-12T21:00:09.219Z,98.10
2022-08-12T21:02:40.363Z,98.20
2022-08-12T21:05:21.930Z,98.10
2022-08-12T21:07:52.260Z,98.10
2022-08-12T21:10:21.239Z,98.00
2022-08-12T21:12:51.174Z,98.10
2022-08-12T21:15:24.031Z,98.10
2022-08-12T21:18:09.791Z,98.00
2022-08-12T21:20:52.842Z,97.90
2022-08-12T21:23:22.695Z,98.00
2022-08-12T21:25:52.823Z,98.00
2022-08-12T21:28:31.320Z,98.10
2022-08-12T21:32:34.533Z,97.90
2022-08-12T21:34:08.171Z,98.10
2022-08-12T21:36:43.196Z,98.00
2022-08-12T21:39:35.141Z,98.00
2022-08-12T21:42:06.561Z,98.00
2022-08-12T21:45:43.806Z,98.30
2022-08-12T21:47:23.993Z,98.20
2022-08-12T21:50:02.958Z,98.40
2022-08-12T21:52:36.745Z,98.40
2022-08-12T21:55:08.040Z,98.30
2022-08-12T21:57:51.041Z,98.20
2022-08-12T22:00:33.380Z,98.20
2022-08-12T22:04:01.394Z,98.30
2022-08-12T22:06:30.502Z,98.30
2022-08-12T22:09:05.533Z,98.60
2022-08-12T22:11:42.052Z,98.60
2022-08-12T22:14:18.038Z,98.60
2022-08-12T22:16:51.008Z,98.70
2022-08-12T22:19:21.041Z,98.60
2022-08-12T22:21:54.370Z,98.40
2022-08-12T22:24:26.919Z,98.30
2022-08-12T22:27:31.365Z,98.30
2022-08-12T22:30:08.441Z,98.40
2022-08-12T22:32:55.167Z,98.50
2022-08-12T22:35:56.154Z,98.40
2022-08-12T22:38:24.385Z,98.50
2022-08-12T22:41:01.115Z,98.40
2022-08-12T22:44:00.369Z,98.40
2022-08-12T22:46:37.727Z,98.50
2022-08-12T22:49:09.038Z,98.80
2022-08-12T22:52:00.606Z,98.80
2022-08-12T22:54:34.955Z,98.70
2022-08-12T22:57:05.532Z,98.80
2022-08-12T22:59:55.594Z,98.80
2022-08-12T23:02:28.914Z,98.90
2022-08-12T23:04:59.205Z,98.80
2022-08-12T23:07:36.120Z,99.00
2022-08-12T23:10:17.662Z,98.80
2022-08-12T23:12:58.663Z,98.90
2022-08-12T23:15:26.731Z,99.00
2022-08-12T23:17:59.020Z,99.00
2022-08-12T23:20:27.943Z,99.00
2022-08-12T23:23:02.789Z,99.00
2022-08-12T23:25:54.561Z,99.00
2022-08-12T23:28:35.759Z,98.90
2022-08-12T23:31:06.503Z,98.80
2022-08-12T23:34:00.875Z,98.80
2022-08-12T23:36:39.235Z,98.90
2022-08-12T23:40:15.376Z,98.90
2022-08-12T23:42:17.854Z,99.00
2022-08-12T23:44:52.506Z,99.10
2022-08-12T23:47:22.858Z,99.00
2022-08-12T23:49:57.673Z,99.10
2022-08-12T23:52:33.803Z,99.20
2022-08-12T23:55:23.047Z,99.20
2022-08-12T23:58:21.444Z,99.20
